sensor_id;sensor_type;location;lat;lon;timestamp;P1;durP1;ratioP1;P2;durP2;ratioP2
21941;SDS011;11135;54.192;15.670;2024-02-21T00:03:04;12.32;;;2.55;;
21941;SDS011;11135;54.192;15.670;2024-02-21T00:06:29;22.75;;;4.55;;
21941;SDS011;11135;54.192;15.670;2024-02-21T00:09:55;14.75;;;3.70;;
21941;SDS011;11135;54.192;15.670;2024-02-21T00:13:20;11.73;;;3.70;;
21941;SDS011;11135;54.192;15.670;2024-02-21T00:16:49;10.93;;;3.70;;
21941;SDS011;11135;54.192;15.670;2024-02-21T00:20:15;15.95;;;4.18;;
21941;SDS011;11135;54.192;15.670;2024-02-21T00:23:41;14.73;;;3.85;;
21941;SDS011;11135;54.192;15.670;2024-02-21T00:27:08;17.75;;;5.88;;
21941;SDS011;11135;54.192;15.670;2024-02-21T00:30:33;15.30;;;4.75;;
21941;SDS011;11135;54.192;15.670;2024-02-21T00:34:03;13.85;;;4.55;;
21941;SDS011;11135;54.192;15.670;2024-02-21T00:37:29;20.13;;;5.55;;
21941;SDS011;11135;54.192;15.670;2024-02-21T00:40:55;24.73;;;5.53;;
21941;SDS011;11135;54.192;15.670;2024-02-21T00:44:21;16.92;;;5.05;;
21941;SDS011;11135;54.192;15.670;2024-02-21T00:47:46;20.02;;;4.70;;
21941;SDS011;11135;54.192;15.670;2024-02-21T00:51:15;14.75;;;4.53;;
21941;SDS011;11135;54.192;15.670;2024-02-21T00:54:40;18.77;;;5.50;;
21941;SDS011;11135;54.192;15.670;2024-02-21T00:58:15;18.33;;;5.47;;
21941;SDS011;11135;54.192;15.670;2024-02-21T01:01:41;20.00;;;5.75;;
21941;SDS011;11135;54.192;15.670;2024-02-21T01:05:07;17.58;;;5.85;;
21941;SDS011;11135;54.192;15.670;2024-02-21T01:08:36;12.27;;;5.15;;
21941;SDS011;11135;54.192;15.670;2024-02-21T01:12:01;22.17;;;6.38;;
21941;SDS011;11135;54.192;15.670;2024-02-21T01:15:27;17.83;;;6.57;;
21941;SDS011;11135;54.192;15.670;2024-02-21T01:18:52;18.83;;;4.85;;
21941;SDS011;11135;54.192;15.670;2024-02-21T01:22:18;17.55;;;5.75;;
21941;SDS011;11135;54.192;15.670;2024-02-21T01:25:47;24.42;;;6.80;;
21941;SDS011;11135;54.192;15.670;2024-02-21T01:29:12;17.58;;;5.80;;
21941;SDS011;11135;54.192;15.670;2024-02-21T01:32:38;17.65;;;4.70;;
21941;SDS011;11135;54.192;15.670;2024-02-21T01:36:04;20.20;;;6.00;;
21941;SDS011;11135;54.192;15.670;2024-02-21T01:39:30;22.42;;;6.22;;
21941;SDS011;11135;54.192;15.670;2024-02-21T01:42:58;20.35;;;6.78;;
21941;SDS011;11135;54.192;15.670;2024-02-21T01:46:23;18.05;;;5.80;;
21941;SDS011;11135;54.192;15.670;2024-02-21T01:49:51;22.75;;;6.95;;
21941;SDS011;11135;54.192;15.670;2024-02-21T01:53:18;20.25;;;5.78;;
21941;SDS011;11135;54.192;15.670;2024-02-21T01:56:45;18.08;;;5.32;;
21941;SDS011;11135;54.192;15.670;2024-02-21T02:00:14;15.55;;;5.00;;
21941;SDS011;11135;54.192;15.670;2024-02-21T02:03:40;17.38;;;4.68;;
21941;SDS011;11135;54.192;15.670;2024-02-21T02:07:06;17.08;;;5.75;;
21941;SDS011;11135;54.192;15.670;2024-02-21T02:10:32;18.10;;;5.35;;
21941;SDS011;11135;54.192;15.670;2024-02-21T02:13:58;20.42;;;4.85;;
21941;SDS011;11135;54.192;15.670;2024-02-21T02:17:27;14.57;;;4.32;;
21941;SDS011;11135;54.192;15.670;2024-02-21T02:20:52;16.95;;;5.78;;
21941;SDS011;11135;54.192;15.670;2024-02-21T02:24:22;25.25;;;6.68;;
21941;SDS011;11135;54.192;15.670;2024-02-21T02:27:49;16.40;;;5.28;;
21941;SDS011;11135;54.192;15.670;2024-02-21T02:31:14;20.08;;;5.95;;
21941;SDS011;11135;54.192;15.670;2024-02-21T02:34:40;21.50;;;6.50;;
21941;SDS011;11135;54.192;15.670;2024-02-21T02:38:06;16.45;;;5.75;;
21941;SDS011;11135;54.192;15.670;2024-02-21T02:41:37;21.73;;;6.88;;
21941;SDS011;11135;54.192;15.670;2024-02-21T02:45:02;22.30;;;6.15;;
21941;SDS011;11135;54.192;15.670;2024-02-21T02:48:28;21.33;;;6.00;;
21941;SDS011;11135;54.192;15.670;2024-02-21T02:51:54;21.27;;;5.28;;
21941;SDS011;11135;54.192;15.670;2024-02-21T02:55:19;20.83;;;7.15;;
21941;SDS011;11135;54.192;15.670;2024-02-21T02:58:48;19.05;;;6.95;;
21941;SDS011;11135;54.192;15.670;2024-02-21T03:02:14;20.77;;;6.30;;
21941;SDS011;11135;54.192;15.670;2024-02-21T03:05:39;20.98;;;8.55;;
21941;SDS011;11135;54.192;15.670;2024-02-21T03:09:05;28.13;;;8.40;;
21941;SDS011;11135;54.192;15.670;2024-02-21T03:12:31;22.85;;;7.75;;
21941;SDS011;11135;54.192;15.670;2024-02-21T03:15:59;27.38;;;6.85;;
21941;SDS011;11135;54.192;15.670;2024-02-21T03:19:25;18.55;;;7.15;;
21941;SDS011;11135;54.192;15.670;2024-02-21T03:22:51;20.08;;;7.43;;
21941;SDS011;11135;54.192;15.670;2024-02-21T03:26:17;18.40;;;6.82;;
21941;SDS011;11135;54.192;15.670;2024-02-21T03:29:42;28.35;;;8.50;;
21941;SDS011;11135;54.192;15.670;2024-02-21T03:33:11;21.30;;;7.45;;
21941;SDS011;11135;54.192;15.670;2024-02-21T03:36:36;25.92;;;9.00;;
21941;SDS011;11135;54.192;15.670;2024-02-21T03:40:02;26.02;;;9.27;;
21941;SDS011;11135;54.192;15.670;2024-02-21T03:43:31;34.33;;;9.95;;
21941;SDS011;11135;54.192;15.670;2024-02-21T03:46:57;29.23;;;9.63;;
21941;SDS011;11135;54.192;15.670;2024-02-21T03:50:25;29.02;;;9.90;;
21941;SDS011;11135;54.192;15.670;2024-02-21T03:53:52;22.60;;;8.50;;
21941;SDS011;11135;54.192;15.670;2024-02-21T03:57:18;19.50;;;8.23;;
21941;SDS011;11135;54.192;15.670;2024-02-21T04:00:43;28.15;;;10.40;;
21941;SDS011;11135;54.192;15.670;2024-02-21T04:04:09;24.33;;;11.27;;
21941;SDS011;11135;54.192;15.670;2024-02-21T04:07:37;28.38;;;11.02;;
21941;SDS011;11135;54.192;15.670;2024-02-21T04:11:03;22.90;;;11.05;;
21941;SDS011;11135;54.192;15.670;2024-02-21T04:14:30;23.58;;;12.73;;
21941;SDS011;11135;54.192;15.670;2024-02-21T04:17:57;17.52;;;9.32;;
21941;SDS011;11135;54.192;15.670;2024-02-21T04:21:22;27.13;;;12.32;;
21941;SDS011;11135;54.192;15.670;2024-02-21T04:24:51;24.90;;;10.70;;
21941;SDS011;11135;54.192;15.670;2024-02-21T04:28:16;29.17;;;11.90;;
21941;SDS011;11135;54.192;15.670;2024-02-21T04:31:42;32.90;;;14.18;;
21941;SDS011;11135;54.192;15.670;2024-02-21T04:35:08;19.13;;;8.65;;
21941;SDS011;11135;54.192;15.670;2024-02-21T04:38:34;20.08;;;10.57;;
21941;SDS011;11135;54.192;15.670;2024-02-21T04:42:04;30.75;;;13.65;;
21941;SDS011;11135;54.192;15.670;2024-02-21T04:45:30;25.52;;;12.85;;
21941;SDS011;11135;54.192;15.670;2024-02-21T04:48:55;29.23;;;12.20;;
21941;SDS011;11135;54.192;15.670;2024-02-21T04:52:21;34.58;;;12.68;;
21941;SDS011;11135;54.192;15.670;2024-02-21T04:55:47;23.38;;;11.50;;
21941;SDS011;11135;54.192;15.670;2024-02-21T04:59:15;24.52;;;10.77;;
21941;SDS011;11135;54.192;15.670;2024-02-21T05:02:41;25.02;;;12.63;;
21941;SDS011;11135;54.192;15.670;2024-02-21T05:06:06;31.67;;;14.25;;
21941;SDS011;11135;54.192;15.670;2024-02-21T05:09:33;26.83;;;13.00;;
21941;SDS011;11135;54.192;15.670;2024-02-21T05:12:58;33.20;;;13.38;;
21941;SDS011;11135;54.192;15.670;2024-02-21T05:16:27;29.08;;;13.15;;
21941;SDS011;11135;54.192;15.670;2024-02-21T05:19:52;29.02;;;12.27;;
21941;SDS011;11135;54.192;15.670;2024-02-21T05:23:18;25.50;;;11.80;;
21941;SDS011;11135;54.192;15.670;2024-02-21T05:26:44;30.67;;;13.05;;
21941;SDS011;11135;54.192;15.670;2024-02-21T05:30:10;25.40;;;10.90;;
21941;SDS011;11135;54.192;15.670;2024-02-21T05:33:39;24.30;;;10.75;;
21941;SDS011;11135;54.192;15.670;2024-02-21T05:37:05;25.23;;;13.40;;
21941;SDS011;11135;54.192;15.670;2024-02-21T05:40:30;28.75;;;13.93;;
21941;SDS011;11135;54.192;15.670;2024-02-21T05:43:56;26.85;;;11.60;;
21941;SDS011;11135;54.192;15.670;2024-02-21T05:47:22;16.13;;;8.68;;
21941;SDS011;11135;54.192;15.670;2024-02-21T05:50:50;26.73;;;10.55;;
21941;SDS011;11135;54.192;15.670;2024-02-21T05:54:16;32.65;;;13.40;;
21941;SDS011;11135;54.192;15.670;2024-02-21T05:57:42;24.75;;;11.25;;
21941;SDS011;11135;54.192;15.670;2024-02-21T06:01:07;23.92;;;12.73;;
21941;SDS011;11135;54.192;15.670;2024-02-21T06:04:33;21.40;;;11.07;;
21941;SDS011;11135;54.192;15.670;2024-02-21T06:08:01;26.30;;;13.05;;
21941;SDS011;11135;54.192;15.670;2024-02-21T06:11:27;24.63;;;12.57;;
21941;SDS011;11135;54.192;15.670;2024-02-21T06:14:53;22.42;;;11.93;;
21941;SDS011;11135;54.192;15.670;2024-02-21T06:18:18;28.50;;;13.52;;
21941;SDS011;11135;54.192;15.670;2024-02-21T06:21:44;20.60;;;10.38;;
21941;SDS011;11135;54.192;15.670;2024-02-21T06:25:12;31.58;;;13.63;;
21941;SDS011;11135;54.192;15.670;2024-02-21T06:28:38;29.92;;;13.90;;
21941;SDS011;11135;54.192;15.670;2024-02-21T06:32:05;22.58;;;11.15;;
21941;SDS011;11135;54.192;15.670;2024-02-21T06:35:31;31.52;;;13.73;;
21941;SDS011;11135;54.192;15.670;2024-02-21T06:38:57;26.88;;;11.73;;
21941;SDS011;11135;54.192;15.670;2024-02-21T06:42:26;28.30;;;12.60;;
21941;SDS011;11135;54.192;15.670;2024-02-21T06:45:53;28.85;;;13.20;;
21941;SDS011;11135;54.192;15.670;2024-02-21T06:49:19;22.42;;;11.63;;
21941;SDS011;11135;54.192;15.670;2024-02-21T06:52:45;25.13;;;13.13;;
21941;SDS011;11135;54.192;15.670;2024-02-21T06:56:10;23.58;;;11.63;;
21941;SDS011;11135;54.192;15.670;2024-02-21T06:59:39;25.10;;;12.40;;
21941;SDS011;11135;54.192;15.670;2024-02-21T07:03:04;28.77;;;15.00;;
21941;SDS011;11135;54.192;15.670;2024-02-21T07:06:30;25.25;;;13.30;;
21941;SDS011;11135;54.192;15.670;2024-02-21T07:09:57;22.55;;;14.25;;
21941;SDS011;11135;54.192;15.670;2024-02-21T07:13:23;41.55;;;15.15;;
21941;SDS011;11135;54.192;15.670;2024-02-21T07:16:51;23.10;;;11.93;;
21941;SDS011;11135;54.192;15.670;2024-02-21T07:20:17;35.58;;;13.65;;
21941;SDS011;11135;54.192;15.670;2024-02-21T07:23:43;31.75;;;12.98;;
21941;SDS011;11135;54.192;15.670;2024-02-21T07:27:09;36.13;;;14.15;;
21941;SDS011;11135;54.192;15.670;2024-02-21T07:30:34;32.20;;;14.52;;
21941;SDS011;11135;54.192;15.670;2024-02-21T07:34:03;31.73;;;13.20;;
21941;SDS011;11135;54.192;15.670;2024-02-21T07:37:29;33.13;;;13.82;;
21941;SDS011;11135;54.192;15.670;2024-02-21T07:40:55;20.83;;;10.02;;
21941;SDS011;11135;54.192;15.670;2024-02-21T07:44:20;24.83;;;10.65;;
21941;SDS011;11135;54.192;15.670;2024-02-21T07:47:46;33.28;;;12.90;;
21941;SDS011;11135;54.192;15.670;2024-02-21T07:51:14;32.65;;;13.65;;
21941;SDS011;11135;54.192;15.670;2024-02-21T07:54:41;26.27;;;12.30;;
21941;SDS011;11135;54.192;15.670;2024-02-21T07:58:06;30.83;;;13.63;;
21941;SDS011;11135;54.192;15.670;2024-02-21T08:01:32;28.98;;;13.35;;
21941;SDS011;11135;54.192;15.670;2024-02-21T08:04:58;27.05;;;12.50;;
21941;SDS011;11135;54.192;15.670;2024-02-21T08:08:26;28.90;;;12.48;;
21941;SDS011;11135;54.192;15.670;2024-02-21T08:11:53;32.72;;;13.38;;
21941;SDS011;11135;54.192;15.670;2024-02-21T08:15:19;32.10;;;12.98;;
21941;SDS011;11135;54.192;15.670;2024-02-21T08:18:51;28.95;;;12.27;;
21941;SDS011;11135;54.192;15.670;2024-02-21T08:22:16;24.75;;;12.40;;
21941;SDS011;11135;54.192;15.670;2024-02-21T08:25:46;18.52;;;10.00;;
21941;SDS011;11135;54.192;15.670;2024-02-21T08:29:12;21.88;;;10.40;;
21941;SDS011;11135;54.192;15.670;2024-02-21T08:32:58;23.15;;;11.88;;
21941;SDS011;11135;54.192;15.670;2024-02-21T08:36:24;28.17;;;8.18;;
21941;SDS011;11135;54.192;15.670;2024-02-21T08:39:50;25.45;;;11.13;;
21941;SDS011;11135;54.192;15.670;2024-02-21T08:43:18;21.52;;;10.63;;
21941;SDS011;11135;54.192;15.670;2024-02-21T08:46:44;17.73;;;9.55;;
21941;SDS011;11135;54.192;15.670;2024-02-21T08:50:10;23.38;;;10.88;;
21941;SDS011;11135;54.192;15.670;2024-02-21T08:53:49;21.90;;;9.50;;
21941;SDS011;11135;54.192;15.670;2024-02-21T08:57:16;20.33;;;8.98;;
21941;SDS011;11135;54.192;15.670;2024-02-21T09:00:44;16.67;;;8.18;;
21941;SDS011;11135;54.192;15.670;2024-02-21T09:04:31;19.08;;;9.45;;
21941;SDS011;11135;54.192;15.670;2024-02-21T09:07:56;16.65;;;7.95;;
21941;SDS011;11135;54.192;15.670;2024-02-21T09:11:22;17.13;;;7.63;;
21941;SDS011;11135;54.192;15.670;2024-02-21T09:14:50;13.10;;;6.85;;
21941;SDS011;11135;54.192;15.670;2024-02-21T09:18:19;13.05;;;6.80;;
21941;SDS011;11135;54.192;15.670;2024-02-21T09:21:45;13.48;;;7.15;;
21941;SDS011;11135;54.192;15.670;2024-02-21T09:25:11;12.90;;;7.05;;
21941;SDS011;11135;54.192;15.670;2024-02-21T09:28:37;8.68;;;6.10;;
21941;SDS011;11135;54.192;15.670;2024-02-21T09:32:03;14.07;;;6.50;;
21941;SDS011;11135;54.192;15.670;2024-02-21T09:35:32;12.82;;;6.07;;
21941;SDS011;11135;54.192;15.670;2024-02-21T09:38:58;11.52;;;5.10;;
21941;SDS011;11135;54.192;15.670;2024-02-21T09:42:25;12.50;;;6.63;;
21941;SDS011;11135;54.192;15.670;2024-02-21T09:45:55;14.00;;;7.10;;
21941;SDS011;11135;54.192;15.670;2024-02-21T09:49:23;11.27;;;6.90;;
21941;SDS011;11135;54.192;15.670;2024-02-21T09:52:57;8.60;;;4.78;;
21941;SDS011;11135;54.192;15.670;2024-02-21T09:56:24;11.80;;;5.97;;
21941;SDS011;11135;54.192;15.670;2024-02-21T09:59:51;11.55;;;5.30;;
21941;SDS011;11135;54.192;15.670;2024-02-21T10:03:17;7.93;;;4.32;;
21941;SDS011;11135;54.192;15.670;2024-02-21T10:06:42;10.20;;;5.20;;
21941;SDS011;11135;54.192;15.670;2024-02-21T10:10:11;9.70;;;5.93;;
21941;SDS011;11135;54.192;15.670;2024-02-21T10:13:38;9.93;;;5.53;;
21941;SDS011;11135;54.192;15.670;2024-02-21T10:17:04;10.10;;;5.32;;
21941;SDS011;11135;54.192;15.670;2024-02-21T10:20:33;9.05;;;4.20;;
21941;SDS011;11135;54.192;15.670;2024-02-21T10:23:59;7.47;;;4.68;;
21941;SDS011;11135;54.192;15.670;2024-02-21T10:27:29;9.38;;;4.55;;
21941;SDS011;11135;54.192;15.670;2024-02-21T10:30:55;9.23;;;4.78;;
21941;SDS011;11135;54.192;15.670;2024-02-21T10:34:20;10.75;;;5.82;;
21941;SDS011;11135;54.192;15.670;2024-02-21T10:37:46;7.07;;;3.95;;
21941;SDS011;11135;54.192;15.670;2024-02-21T10:41:13;10.40;;;4.80;;
21941;SDS011;11135;54.192;15.670;2024-02-21T10:44:42;6.28;;;4.13;;
21941;SDS011;11135;54.192;15.670;2024-02-21T10:48:10;7.55;;;3.85;;
21941;SDS011;11135;54.192;15.670;2024-02-21T10:51:40;7.55;;;4.25;;
21941;SDS011;11135;54.192;15.670;2024-02-21T10:55:09;9.35;;;4.90;;
21941;SDS011;11135;54.192;15.670;2024-02-21T10:58:35;6.63;;;3.53;;
21941;SDS011;11135;54.192;15.670;2024-02-21T11:02:04;5.70;;;2.95;;
21941;SDS011;11135;54.192;15.670;2024-02-21T11:05:30;6.20;;;3.92;;
21941;SDS011;11135;54.192;15.670;2024-02-21T11:09:00;7.43;;;3.63;;
21941;SDS011;11135;54.192;15.670;2024-02-21T11:12:26;10.68;;;3.53;;
21941;SDS011;11135;54.192;15.670;2024-02-21T11:15:52;6.32;;;2.83;;
21941;SDS011;11135;54.192;15.670;2024-02-21T11:19:23;7.40;;;2.88;;
21941;SDS011;11135;54.192;15.670;2024-02-21T11:22:50;5.55;;;2.50;;
21941;SDS011;11135;54.192;15.670;2024-02-21T11:26:18;9.30;;;3.55;;
21941;SDS011;11135;54.192;15.670;2024-02-21T11:29:44;5.80;;;2.55;;
21941;SDS011;11135;54.192;15.670;2024-02-21T11:33:12;4.95;;;2.30;;
21941;SDS011;11135;54.192;15.670;2024-02-21T11:36:48;8.55;;;2.38;;
21941;SDS011;11135;54.192;15.670;2024-02-21T11:40:14;3.70;;;1.55;;
21941;SDS011;11135;54.192;15.670;2024-02-21T11:43:40;4.10;;;1.92;;
21941;SDS011;11135;54.192;15.670;2024-02-21T11:47:06;4.93;;;1.92;;
21941;SDS011;11135;54.192;15.670;2024-02-21T11:50:34;3.55;;;1.20;;
21941;SDS011;11135;54.192;15.670;2024-02-21T11:54:04;4.40;;;1.98;;
21941;SDS011;11135;54.192;15.670;2024-02-21T11:57:31;3.95;;;1.95;;
21941;SDS011;11135;54.192;15.670;2024-02-21T12:00:58;4.35;;;1.77;;
21941;SDS011;11135;54.192;15.670;2024-02-21T12:04:25;4.70;;;1.33;;
21941;SDS011;11135;54.192;15.670;2024-02-21T12:07:51;3.20;;;1.38;;
21941;SDS011;11135;54.192;15.670;2024-02-21T12:11:21;4.70;;;1.60;;
21941;SDS011;11135;54.192;15.670;2024-02-21T12:14:53;1.95;;;1.35;;
21941;SDS011;11135;54.192;15.670;2024-02-21T12:18:20;4.93;;;1.38;;
21941;SDS011;11135;54.192;15.670;2024-02-21T12:21:47;1.92;;;1.02;;
21941;SDS011;11135;54.192;15.670;2024-02-21T12:25:16;5.53;;;1.23;;
21941;SDS011;11135;54.192;15.670;2024-02-21T12:28:48;2.28;;;0.90;;
21941;SDS011;11135;54.192;15.670;2024-02-21T12:32:13;1.70;;;0.98;;
21941;SDS011;11135;54.192;15.670;2024-02-21T12:35:39;3.85;;;1.35;;
21941;SDS011;11135;54.192;15.670;2024-02-21T12:39:05;2.17;;;1.20;;
21941;SDS011;11135;54.192;15.670;2024-02-21T12:42:34;1.60;;;0.90;;
21941;SDS011;11135;54.192;15.670;2024-02-21T12:46:12;3.13;;;1.13;;
21941;SDS011;11135;54.192;15.670;2024-02-21T12:49:38;2.20;;;1.00;;
21941;SDS011;11135;54.192;15.670;2024-02-21T12:53:08;2.97;;;1.27;;
21941;SDS011;11135;54.192;15.670;2024-02-21T12:56:47;1.92;;;1.02;;
21941;SDS011;11135;54.192;15.670;2024-02-21T13:00:13;2.00;;;1.40;;
21941;SDS011;11135;54.192;15.670;2024-02-21T13:03:41;2.03;;;1.00;;
21941;SDS011;11135;54.192;15.670;2024-02-21T13:07:09;1.77;;;0.88;;
21941;SDS011;11135;54.192;15.670;2024-02-21T13:10:34;3.28;;;1.40;;
21941;SDS011;11135;54.192;15.670;2024-02-21T13:14:00;1.90;;;0.93;;
21941;SDS011;11135;54.192;15.670;2024-02-21T13:17:29;1.35;;;0.70;;
21941;SDS011;11135;54.192;15.670;2024-02-21T13:20:57;1.58;;;0.80;;
21941;SDS011;11135;54.192;15.670;2024-02-21T13:24:23;1.05;;;0.70;;
21941;SDS011;11135;54.192;15.670;2024-02-21T13:27:49;3.88;;;1.08;;
21941;SDS011;11135;54.192;15.670;2024-02-21T13:31:14;2.60;;;1.05;;
21941;SDS011;11135;54.192;15.670;2024-02-21T13:34:41;2.92;;;1.00;;
21941;SDS011;11135;54.192;15.670;2024-02-21T13:38:09;1.48;;;0.77;;
21941;SDS011;11135;54.192;15.670;2024-02-21T13:41:36;1.88;;;0.70;;
21941;SDS011;11135;54.192;15.670;2024-02-21T13:45:01;1.42;;;0.93;;
21941;SDS011;11135;54.192;15.670;2024-02-21T13:48:28;2.78;;;1.00;;
21941;SDS011;11135;54.192;15.670;2024-02-21T13:51:53;6.80;;;1.13;;
21941;SDS011;11135;54.192;15.670;2024-02-21T13:55:22;5.18;;;1.00;;
21941;SDS011;11135;54.192;15.670;2024-02-21T13:58:49;1.40;;;0.90;;
21941;SDS011;11135;54.192;15.670;2024-02-21T14:02:14;2.92;;;1.13;;
21941;SDS011;11135;54.192;15.670;2024-02-21T14:05:40;3.63;;;1.10;;
21941;SDS011;11135;54.192;15.670;2024-02-21T14:09:06;4.07;;;0.90;;
21941;SDS011;11135;54.192;15.670;2024-02-21T14:12:34;2.65;;;0.90;;
21941;SDS011;11135;54.192;15.670;2024-02-21T14:16:00;1.13;;;0.70;;
21941;SDS011;11135;54.192;15.670;2024-02-21T14:19:25;4.93;;;2.00;;
21941;SDS011;11135;54.192;15.670;2024-02-21T14:22:52;3.92;;;1.33;;
21941;SDS011;11135;54.192;15.670;2024-02-21T14:26:17;2.22;;;0.80;;
21941;SDS011;11135;54.192;15.670;2024-02-21T14:29:46;1.35;;;0.63;;
21941;SDS011;11135;54.192;15.670;2024-02-21T14:33:12;3.03;;;0.90;;
21941;SDS011;11135;54.192;15.670;2024-02-21T14:36:38;4.03;;;0.80;;
21941;SDS011;11135;54.192;15.670;2024-02-21T14:40:04;6.03;;;1.02;;
21941;SDS011;11135;54.192;15.670;2024-02-21T14:43:30;2.95;;;0.80;;
21941;SDS011;11135;54.192;15.670;2024-02-21T14:46:59;3.03;;;1.40;;
21941;SDS011;11135;54.192;15.670;2024-02-21T14:50:26;3.30;;;0.88;;
21941;SDS011;11135;54.192;15.670;2024-02-21T14:53:51;1.90;;;0.70;;
21941;SDS011;11135;54.192;15.670;2024-02-21T14:57:18;3.58;;;0.85;;
21941;SDS011;11135;54.192;15.670;2024-02-21T15:00:43;4.13;;;0.90;;
21941;SDS011;11135;54.192;15.670;2024-02-21T15:04:15;6.75;;;0.85;;
21941;SDS011;11135;54.192;15.670;2024-02-21T15:07:41;5.63;;;1.33;;
21941;SDS011;11135;54.192;15.670;2024-02-21T15:11:06;3.58;;;1.02;;
21941;SDS011;11135;54.192;15.670;2024-02-21T15:14:32;3.00;;;1.13;;
21941;SDS011;11135;54.192;15.670;2024-02-21T15:17:58;2.83;;;0.85;;
21941;SDS011;11135;54.192;15.670;2024-02-21T15:21:26;3.38;;;1.10;;
21941;SDS011;11135;54.192;15.670;2024-02-21T15:24:53;5.43;;;1.30;;
21941;SDS011;11135;54.192;15.670;2024-02-21T15:28:18;3.47;;;0.77;;
21941;SDS011;11135;54.192;15.670;2024-02-21T15:31:44;3.20;;;0.90;;
21941;SDS011;11135;54.192;15.670;2024-02-21T15:35:10;4.45;;;1.30;;
21941;SDS011;11135;54.192;15.670;2024-02-21T15:38:39;7.82;;;1.33;;
21941;SDS011;11135;54.192;15.670;2024-02-21T15:42:05;3.17;;;1.02;;
21941;SDS011;11135;54.192;15.670;2024-02-21T15:45:31;3.53;;;1.30;;
21941;SDS011;11135;54.192;15.670;2024-02-21T15:48:57;3.05;;;0.98;;
21941;SDS011;11135;54.192;15.670;2024-02-21T15:52:23;3.65;;;1.25;;
21941;SDS011;11135;54.192;15.670;2024-02-21T15:55:52;6.07;;;1.42;;
21941;SDS011;11135;54.192;15.670;2024-02-21T15:59:18;8.18;;;1.20;;
21941;SDS011;11135;54.192;15.670;2024-02-21T16:02:44;2.58;;;0.82;;
21941;SDS011;11135;54.192;15.670;2024-02-21T16:06:10;3.90;;;1.02;;
21941;SDS011;11135;54.192;15.670;2024-02-21T16:09:36;11.50;;;1.60;;
21941;SDS011;11135;54.192;15.670;2024-02-21T16:13:09;4.40;;;1.25;;
21941;SDS011;11135;54.192;15.670;2024-02-21T16:16:36;5.38;;;1.00;;
21941;SDS011;11135;54.192;15.670;2024-02-21T16:20:03;5.72;;;1.13;;
21941;SDS011;11135;54.192;15.670;2024-02-21T16:23:33;2.70;;;1.17;;
21941;SDS011;11135;54.192;15.670;2024-02-21T16:26:58;2.05;;;1.00;;
21941;SDS011;11135;54.192;15.670;2024-02-21T16:30:34;4.60;;;1.33;;
21941;SDS011;11135;54.192;15.670;2024-02-21T16:34:00;5.43;;;1.10;;
21941;SDS011;11135;54.192;15.670;2024-02-21T16:37:26;4.85;;;1.00;;
21941;SDS011;11135;54.192;15.670;2024-02-21T16:40:51;3.88;;;0.85;;
21941;SDS011;11135;54.192;15.670;2024-02-21T16:44:17;4.13;;;1.30;;
21941;SDS011;11135;54.192;15.670;2024-02-21T16:47:46;4.65;;;1.08;;
21941;SDS011;11135;54.192;15.670;2024-02-21T16:51:12;5.28;;;1.20;;
21941;SDS011;11135;54.192;15.670;2024-02-21T16:54:38;6.72;;;1.05;;
21941;SDS011;11135;54.192;15.670;2024-02-21T16:58:03;5.80;;;1.48;;
21941;SDS011;11135;54.192;15.670;2024-02-21T17:01:34;7.80;;;1.55;;
21941;SDS011;11135;54.192;15.670;2024-02-21T17:08:31;6.65;;;1.50;;
21941;SDS011;11135;54.192;15.670;2024-02-21T17:11:58;7.93;;;1.67;;
21941;SDS011;11135;54.192;15.670;2024-02-21T17:15:23;6.13;;;1.20;;
21941;SDS011;11135;54.192;15.670;2024-02-21T17:18:49;2.63;;;1.23;;
21941;SDS011;11135;54.192;15.670;2024-02-21T17:22:17;6.68;;;1.60;;
21941;SDS011;11135;54.192;15.670;2024-02-21T17:25:45;7.13;;;1.48;;
21941;SDS011;11135;54.192;15.670;2024-02-21T17:29:11;5.10;;;1.65;;
21941;SDS011;11135;54.192;15.670;2024-02-21T17:32:37;6.03;;;2.25;;
21941;SDS011;11135;54.192;15.670;2024-02-21T17:36:04;4.75;;;1.75;;
21941;SDS011;11135;54.192;15.670;2024-02-21T17:39:32;9.20;;;2.50;;
21941;SDS011;11135;54.192;15.670;2024-02-21T17:43:00;10.18;;;2.55;;
21941;SDS011;11135;54.192;15.670;2024-02-21T17:46:26;7.15;;;3.00;;
21941;SDS011;11135;54.192;15.670;2024-02-21T17:49:52;8.45;;;2.70;;
21941;SDS011;11135;54.192;15.670;2024-02-21T17:53:17;10.80;;;3.35;;
21941;SDS011;11135;54.192;15.670;2024-02-21T17:56:43;8.73;;;3.55;;
21941;SDS011;11135;54.192;15.670;2024-02-21T18:00:13;10.75;;;3.00;;
21941;SDS011;11135;54.192;15.670;2024-02-21T18:03:39;6.68;;;3.10;;
21941;SDS011;11135;54.192;15.670;2024-02-21T18:07:05;8.32;;;3.10;;
21941;SDS011;11135;54.192;15.670;2024-02-21T18:10:31;10.70;;;4.10;;
21941;SDS011;11135;54.192;15.670;2024-02-21T18:14:00;9.27;;;3.45;;
21941;SDS011;11135;54.192;15.670;2024-02-21T18:17:30;9.38;;;3.55;;
21941;SDS011;11135;54.192;15.670;2024-02-21T18:20:58;8.07;;;4.30;;
21941;SDS011;11135;54.192;15.670;2024-02-21T18:24:23;8.32;;;3.70;;
21941;SDS011;11135;54.192;15.670;2024-02-21T18:27:49;7.90;;;3.97;;
21941;SDS011;11135;54.192;15.670;2024-02-21T18:31:15;10.30;;;3.70;;
21941;SDS011;11135;54.192;15.670;2024-02-21T18:34:44;9.73;;;3.53;;
21941;SDS011;11135;54.192;15.670;2024-02-21T18:38:10;8.18;;;2.97;;
21941;SDS011;11135;54.192;15.670;2024-02-21T18:41:36;7.47;;;2.90;;
21941;SDS011;11135;54.192;15.670;2024-02-21T18:45:03;9.73;;;3.42;;
21941;SDS011;11135;54.192;15.670;2024-02-21T18:48:30;7.65;;;3.72;;
21941;SDS011;11135;54.192;15.670;2024-02-21T18:51:58;6.82;;;3.22;;
21941;SDS011;11135;54.192;15.670;2024-02-21T18:55:24;6.65;;;3.30;;
21941;SDS011;11135;54.192;15.670;2024-02-21T18:58:53;7.40;;;3.70;;
21941;SDS011;11135;54.192;15.670;2024-02-21T19:02:19;6.60;;;3.58;;
21941;SDS011;11135;54.192;15.670;2024-02-21T19:05:46;4.97;;;2.95;;
21941;SDS011;11135;54.192;15.670;2024-02-21T19:09:14;6.90;;;3.67;;
21941;SDS011;11135;54.192;15.670;2024-02-21T19:12:40;7.20;;;4.40;;
21941;SDS011;11135;54.192;15.670;2024-02-21T19:16:06;10.27;;;4.40;;
21941;SDS011;11135;54.192;15.670;2024-02-21T19:19:34;9.20;;;4.78;;
21941;SDS011;11135;54.192;15.670;2024-02-21T19:23:33;8.25;;;4.50;;
21941;SDS011;11135;54.192;15.670;2024-02-21T19:27:02;8.82;;;5.18;;
21941;SDS011;11135;54.192;15.670;2024-02-21T19:30:27;8.60;;;4.57;;
21941;SDS011;11135;54.192;15.670;2024-02-21T19:33:53;7.55;;;4.78;;
21941;SDS011;11135;54.192;15.670;2024-02-21T19:37:19;8.32;;;5.10;;
21941;SDS011;11135;54.192;15.670;2024-02-21T19:40:46;8.80;;;5.57;;
21941;SDS011;11135;54.192;15.670;2024-02-21T19:44:16;8.60;;;5.53;;
21941;SDS011;11135;54.192;15.670;2024-02-21T19:47:45;10.43;;;5.30;;
21941;SDS011;11135;54.192;15.670;2024-02-21T19:51:11;10.95;;;6.00;;
21941;SDS011;11135;54.192;15.670;2024-02-21T19:54:37;10.50;;;6.13;;
21941;SDS011;11135;54.192;15.670;2024-02-21T19:58:04;12.10;;;6.30;;
21941;SDS011;11135;54.192;15.670;2024-02-21T20:01:33;11.20;;;6.47;;
21941;SDS011;11135;54.192;15.670;2024-02-21T20:04:58;8.75;;;5.38;;
21941;SDS011;11135;54.192;15.670;2024-02-21T20:08:25;10.93;;;6.43;;
21941;SDS011;11135;54.192;15.670;2024-02-21T20:11:51;10.35;;;6.60;;
21941;SDS011;11135;54.192;15.670;2024-02-21T20:15:17;11.77;;;6.45;;
21941;SDS011;11135;54.192;15.670;2024-02-21T20:18:46;11.18;;;6.70;;